Time;durP1;ratioP1;P1;durP2;ratioP2;P2;SDS_P1;SDS_P2;PMS_P1;PMS_P2;Temp;Humidity;BMP_temperature;BMP_pressure;BME280_temperature;BME280_humidity;BME280_pressure;Samples;Min_cycle;Max_cycle;Signal;HPM_P1;HPM_P2
2021/11/18 00:02:18;;;;;;;46.30;28.60;;;;;;;5.87;81.38;100388.05;104658;1310;138048;-65
2021/11/18 00:04:54;;;;;;;44.90;28.20;;;;;;;5.92;81.33;100389.40;104802;1311;111139;-65
2021/11/18 00:07:27;;;;;;;46.10;28.90;;;;;;;5.92;81.17;100375.42;104266;1312;139048;-64
2021/11/18 00:10:00;;;;;;;50.00;29.80;;;;;;;5.91;80.78;100380.95;103188;1312;263249;-64
2021/11/18 00:12:33;;;;;;;49.40;29.60;;;;;;;5.88;80.79;100383.71;104465;1312;139936;-64
2021/11/18 00:15:07;;;;;;;45.20;27.90;;;;;;;5.85;81.05;100384.95;103903;1310;96504;-62
2021/11/18 00:17:40;;;;;;;38.10;25.10;;;;;;;5.83;80.87;100387.39;104792;1308;112813;-62
2021/11/18 00:20:16;;;;;;;36.60;24.20;;;;;;;5.81;80.95;100389.50;104657;1310;139506;-63
2021/11/18 00:22:48;;;;;;;39.20;25.00;;;;;;;5.82;80.65;100391.55;104786;1313;107790;-63
2021/11/18 00:25:22;;;;;;;35.80;23.70;;;;;;;5.80;80.86;100389.50;104710;1312;140038;-64
2021/11/18 00:27:54;;;;;;;36.90;23.00;;;;;;;5.80;80.97;100387.44;104693;1312;94776;-63
2021/11/18 00:30:27;;;;;;;39.30;24.80;;;;;;;5.79;80.66;100391.75;103601;1310;138082;-62
2021/11/18 00:33:00;;;;;;;35.00;24.30;;;;;;;5.78;80.65;100384.34;103557;1312;108570;-62
2021/11/18 00:35:36;;;;;;;37.00;24.60;;;;;;;5.77;80.95;100385.74;103976;1312;108761;-63
2021/11/18 00:38:11;;;;;;;34.50;23.30;;;;;;;5.77;80.77;100386.77;103682;1313;139557;-64
2021/11/18 00:40:45;;;;;;;31.80;21.90;;;;;;;5.78;81.07;100386.25;103575;1314;97232;-63
2021/11/18 00:43:19;;;;;;;35.70;22.60;;;;;;;5.79;80.81;100384.16;103681;1312;138730;-63
2021/11/18 00:45:52;;;;;;;31.50;21.40;;;;;;;5.78;80.70;100384.02;103626;1312;109037;-63
2021/11/18 00:48:25;;;;;;;35.10;22.90;;;;;;;5.74;80.61;100386.63;104577;1312;139480;-63
2021/11/18 00:51:00;;;;;;;38.40;25.00;;;;;;;5.73;81.07;100381.61;104865;1312;94993;-63
2021/11/18 00:53:41;;;;;;;38.60;24.20;;;;;;;5.71;80.83;100385.61;103995;1311;96499;-63
2021/11/18 00:56:14;;;;;;;35.30;23.30;;;;;;;5.67;80.89;100388.93;103298;1312;137981;-63
2021/11/18 00:58:49;;;;;;;34.10;22.50;;;;;;;5.65;81.06;100386.71;103505;1312;108497;-63
2021/11/18 01:01:23;;;;;;;30.40;20.70;;;;;;;5.65;81.27;100388.45;103581;1310;138803;-63
2021/11/18 01:03:57;;;;;;;32.40;21.30;;;;;;;5.65;81.04;100396.73;104832;1308;95540;-64
2021/11/18 01:06:31;;;;;;;;;;;;;;;5.64;81.08;100394.84;104753;1311;140499;-64
2021/11/18 01:09:06;;;;;;;32.20;21.00;;;;;;;5.63;81.37;100385.88;104678;1308;111153;-64
2021/11/18 01:11:40;;;;;;;31.30;21.80;;;;;;;5.66;81.41;100383.43;103642;1311;109071;-63
2021/11/18 01:14:15;;;;;;;32.60;22.60;;;;;;;5.67;81.25;100380.15;103419;1315;138126;-63
2021/11/18 01:16:49;;;;;;;34.30;23.10;;;;;;;5.68;81.42;100378.23;104262;1313;96632;-64
2021/11/18 01:19:22;;;;;;;33.70;22.80;;;;;;;5.66;81.31;100385.33;103669;1312;138083;-65
2021/11/18 01:21:54;;;;;;;34.00;22.90;;;;;;;5.64;80.99;100392.60;104835;1311;111053;-63
2021/11/18 01:24:27;;;;;;;35.50;22.70;;;;;;;5.60;81.15;100393.68;104133;1311;137908;-62
2021/11/18 01:27:19;;;;;;;30.20;20.50;;;;;;;5.57;81.35;100391.98;104513;1310;108952;-63
2021/11/18 01:29:51;;;;;;;30.10;20.00;;;;;;;5.55;81.35;100389.55;104754;1308;94767;-64
2021/11/18 01:32:24;;;;;;;29.40;20.40;;;;;;;5.57;81.33;100384.73;104642;1311;139147;-65
2021/11/18 01:34:57;;;;;;;32.10;20.80;;;;;;;5.58;81.64;100380.77;103624;1312;110126;-62
2021/11/18 01:37:30;;;;;;;29.30;21.10;;;;;;;5.60;81.52;100386.77;103749;1311;138399;-63
2021/11/18 01:40:04;;;;;;;33.80;22.30;;;;;;;5.60;81.57;100388.50;104321;1312;109221;-63
2021/11/18 01:42:36;;;;;;;32.60;21.80;;;;;;;5.61;81.47;100389.02;103371;1310;138417;-63
2021/11/18 01:45:11;;;;;;;33.80;22.80;;;;;;;5.58;81.24;100393.00;104810;1312;94858;-64
2021/11/18 01:47:44;;;;;;;31.40;22.40;;;;;;;5.55;81.51;100399.91;103678;1310;109437;-63
2021/11/18 01:50:21;;;;;;;33.00;21.00;;;;;;;5.52;81.94;100400.98;104649;1312;138333;-63
2021/11/18 01:52:54;;;;;;;29.10;20.10;;;;;;;5.46;82.09;100397.93;104746;1310;108973;-64
2021/11/18 01:55:28;;;;;;;26.60;19.40;;;;;;;5.43;82.01;100396.58;104674;1311;138769;-63
2021/11/18 01:58:00;;;;;;;29.50;19.10;;;;;;;5.43;82.54;100398.31;103621;1312;96526;-63
2021/11/18 02:01:09;;;;;;;29.30;18.50;;;;;;;5.42;82.51;100400.39;103362;1309;139073;-63
2021/11/18 02:03:42;;;;;;;28.20;18.90;;;;;;;5.42;82.52;100405.56;104828;1312;107796;-64
2021/11/18 02:06:28;;;;;;;31.10;19.00;;;;;;;5.44;82.88;100400.88;103386;1311;138643;-62
2021/11/18 02:09:02;;;;;;;32.30;19.70;;;;;;;5.44;82.91;100407.79;104668;1311;94694;-65
2021/11/18 02:11:41;;;;;;;30.50;21.00;;;;;;;5.40;82.99;100409.05;103581;1311;96485;-62
2021/11/18 02:14:22;;;;;;;30.50;20.30;;;;;;;5.38;82.89;100409.89;103402;1311;137958;-62
2021/11/18 02:17:00;;;;;;;26.70;18.20;;;;;;;5.35;83.05;100414.23;103478;1312;109024;-63
2021/11/18 02:19:37;;;;;;;27.50;17.80;;;;;;;5.32;83.15;100418.91;104015;1312;139906;-62
2021/11/18 02:22:11;;;;;;;27.30;18.80;;;;;;;5.31;83.17;100416.00;103609;1312;96532;-64
2021/11/18 02:24:46;;;;;;;28.70;18.30;;;;;;;5.30;83.24;100415.83;103474;1310;137537;-62
2021/11/18 02:27:22;;;;;;;29.40;18.30;;;;;;;5.31;83.52;100413.05;104830;1312;108848;-64
2021/11/18 02:29:57;;;;;;;26.40;18.10;;;;;;;5.33;83.50;100415.96;104817;1317;108832;-64
2021/11/18 02:32:32;;;;;;;26.80;18.90;;;;;;;5.35;83.33;100421.12;103606;1311;138332;-63
2021/11/18 02:35:09;;;;;;;28.50;19.20;;;;;;;5.37;83.59;100418.17;104832;1312;94742;-64
2021/11/18 02:37:42;;;;;;;29.50;20.40;;;;;;;5.36;83.34;100413.86;103707;1311;137929;-63
2021/11/18 02:40:15;;;;;;;29.40;19.30;;;;;;;5.33;83.59;100416.65;103606;1311;111076;-63
2021/11/18 02:42:47;;;;;;;29.20;18.80;;;;;;;5.29;83.77;100418.60;104716;1312;139054;-66
2021/11/18 02:45:22;;;;;;;27.50;18.60;;;;;;;5.25;83.74;100416.05;103632;1317;109237;-64
2021/11/18 02:47:56;;;;;;;29.90;18.50;;;;;;;5.23;83.79;100417.45;104625;1311;94875;-62
2021/11/18 02:50:32;;;;;;;26.10;18.30;;;;;;;5.24;83.83;100417.79;103453;1311;139065;-65
2021/11/18 02:53:06;;;;;;;25.50;17.50;;;;;;;5.29;84.03;100418.27;104741;1312;111210;-63
2021/11/18 02:55:40;;;;;;;25.00;17.20;;;;;;;5.32;84.26;100423.23;104702;1309;138161;-63
2021/11/18 02:58:13;;;;;;;27.70;18.60;;;;;;;5.34;84.09;100423.20;103991;1314;108994;-64
2021/11/18 03:00:53;;;;;;;26.90;19.20;;;;;;;5.34;83.97;100427.17;104664;1311;138116;-64
2021/11/18 03:03:26;;;;;;;30.50;20.10;;;;;;;5.31;83.77;100423.40;103764;1322;94652;-64
2021/11/18 03:05:59;;;;;;;30.60;19.70;;;;;;;5.27;84.05;100419.48;104554;1312;111033;-64
2021/11/18 03:08:32;;;;;;;31.00;17.80;;;;;;;5.24;84.24;100420.71;103568;1308;138460;-62
2021/11/18 03:11:06;;;;;;;28.10;18.50;;;;;;;5.22;84.13;100418.67;104894;1310;108896;-64
2021/11/18 03:13:38;;;;;;;26.60;16.90;;;;;;;5.23;84.20;100415.02;103719;1311;138741;-63
2021/11/18 03:16:12;;;;;;;26.60;17.00;;;;;;;5.25;84.11;100417.26;103369;1312;96514;-63
2021/11/18 03:18:45;;;;;;;25.90;16.70;;;;;;;5.28;84.26;100419.47;103640;1310;139372;-63
2021/11/18 03:21:20;;;;;;;22.70;16.10;;;;;;;5.30;84.38;100422.04;104090;1310;108992;-63
2021/11/18 03:23:56;;;;;;;27.40;16.90;;;;;;;5.33;84.19;100419.94;104734;1313;108834;-63
2021/11/18 03:26:31;;;;;;;25.40;17.50;;;;;;;5.35;84.38;100425.09;104607;1312;137813;-63
2021/11/18 03:29:11;;;;;;;31.20;18.70;;;;;;;5.36;84.04;100430.95;104045;1313;96650;-63
2021/11/18 03:31:43;;;;;;;30.60;19.60;;;;;;;5.35;84.25;100434.92;104124;1313;139385;-62
2021/11/18 03:34:22;;;;;;;30.90;18.50;;;;;;;5.34;83.88;100431.30;104972;1312;109172;-63
2021/11/18 03:36:54;;;;;;;27.10;17.60;;;;;;;5.35;84.31;100437.50;104547;1307;139532;-63
2021/11/18 03:39:27;;;;;;;26.90;17.10;;;;;;;5.36;84.11;100441.11;103477;1311;96620;-62
2021/11/18 03:42:04;;;;;;;27.10;17.40;;;;;;;5.37;83.92;100436.97;103589;1310;96468;-63
2021/11/18 03:44:36;;;;;;;26.70;17.40;;;;;;;5.37;83.95;100438.17;104079;1311;138542;-64
2021/11/18 03:47:12;;;;;;;26.10;17.70;;;;;;;5.38;84.06;100433.68;104766;1309;107964;-63
2021/11/18 03:49:47;;;;;;;25.60;17.10;;;;;;;5.41;84.03;100436.44;104706;1310;138607;-63
2021/11/18 03:52:20;;;;;;;29.80;18.60;;;;;;;5.44;83.92;100439.00;104568;1311;95196;-63
2021/11/18 03:54:53;;;;;;;27.80;18.50;;;;;;;5.49;83.76;100439.64;104495;1313;138196;-64
2021/11/18 03:57:25;;;;;;;31.70;19.70;;;;;;;5.47;83.88;100441.38;104622;1310;111154;-64
2021/11/18 04:00:08;;;;;;;29.40;18.20;;;;;;;5.49;83.91;100446.88;104743;1310;107155;-65
2021/11/18 04:02:47;;;;;;;26.70;18.20;;;;;;;5.47;83.73;100450.18;104780;1312;139836;-64
2021/11/18 04:05:21;;;;;;;27.20;17.30;;;;;;;5.47;83.56;100451.04;104922;1311;94831;-65
2021/11/18 04:07:54;;;;;;;29.90;18.40;;;;;;;5.51;83.92;100450.65;104791;1315;138660;-64
2021/11/18 04:10:29;;;;;;;28.30;16.90;;;;;;;5.55;83.73;100450.27;104984;1311;111216;-64
2021/11/18 04:13:04;;;;;;;29.80;17.80;;;;;;;5.57;83.63;100454.07;104338;1311;139395;-64
2021/11/18 04:15:37;;;;;;;26.80;17.40;;;;;;;5.61;83.91;100453.69;103436;1311;108903;-64
2021/11/18 04:18:10;;;;;;;27.30;17.60;;;;;;;5.64;83.55;100458.48;103440;1312;96621;-64
2021/11/18 04:20:43;;;;;;;32.30;19.30;;;;;;;5.64;83.55;100456.25;103946;1318;138229;-63
2021/11/18 04:23:15;;;;;;;27.30;17.30;;;;;;;5.63;83.60;100455.56;104816;1312;111263;-63
2021/11/18 04:25:48;;;;;;;26.70;17.00;;;;;;;5.59;83.29;100463.20;104749;1309;138527;-63
2021/11/18 04:28:21;;;;;;;25.90;16.50;;;;;;;5.58;83.48;100464.23;104795;1312;108972;-64
2021/11/18 04:30:57;;;;;;;26.50;16.40;;;;;;;5.59;83.23;100460.95;103688;1312;139047;-63
2021/11/18 04:33:36;;;;;;;26.40;16.60;;;;;;;5.62;83.55;100460.76;103380;1312;96614;-63
2021/11/18 04:36:12;;;;;;;28.80;17.60;;;;;;;5.65;83.37;100456.41;103567;1310;111382;-64
2021/11/18 04:38:45;;;;;;;27.20;18.20;;;;;;;5.71;83.50;100459.11;103533;1315;138001;-63
2021/11/18 04:41:17;;;;;;;33.10;18.40;;;;;;;5.73;83.36;100460.98;103515;1313;108846;-63
2021/11/18 04:43:50;;;;;;;29.80;19.20;;;;;;;5.71;83.22;100458.77;103507;1310;138868;-63
2021/11/18 04:46:24;;;;;;;33.00;19.60;;;;;;;5.67;82.99;100460.01;103683;1310;97075;-63
2021/11/18 04:48:59;;;;;;;27.10;18.80;;;;;;;5.66;82.99;100461.05;104637;1310;139742;-63
2021/11/18 04:51:31;;;;;;;29.40;18.60;;;;;;;5.64;83.02;100463.14;103709;1312;107740;-62
2021/11/18 04:54:05;;;;;;;31.50;18.80;;;;;;;5.65;83.11;100462.80;103630;1312;108632;-64
2021/11/18 04:56:37;;;;;;;29.40;18.40;;;;;;;5.65;83.19;100470.38;103601;1312;140131;-63
2021/11/18 04:59:10;;;;;;;31.20;19.10;;;;;;;5.66;83.26;100477.96;103480;1312;96491;-63
2021/11/18 05:01:44;;;;;;;29.90;19.20;;;;;;;5.68;83.21;100475.35;104606;1311;140256;-64
2021/11/18 05:04:16;;;;;;;30.80;20.10;;;;;;;5.70;83.19;100473.60;104940;1310;106082;-64
2021/11/18 05:06:49;;;;;;;36.90;22.10;;;;;;;5.71;83.22;100472.22;103631;1312;138360;-64
2021/11/18 05:09:22;;;;;;;34.70;21.90;;;;;;;5.71;83.12;100478.42;103595;1313;96505;-63
2021/11/18 05:11:55;;;;;;;34.90;20.80;;;;;;;5.70;83.12;100481.02;103589;1309;96431;-64
2021/11/18 05:14:29;;;;;;;37.70;19.80;;;;;;;5.70;83.02;100475.33;103380;1312;138560;-63
2021/11/18 05:17:01;;;;;;;33.40;20.20;;;;;;;5.68;83.01;100472.42;103403;1311;107359;-63
2021/11/18 05:19:34;;;;;;;35.10;20.40;;;;;;;5.68;83.14;100475.17;104473;1312;138520;-63
2021/11/18 05:22:08;;;;;;;31.90;20.60;;;;;;;5.71;83.03;100472.23;104916;1312;94688;-64
2021/11/18 05:24:40;;;;;;;33.90;21.00;;;;;;;5.71;83.18;100471.35;103742;1310;137899;-63
2021/11/18 05:27:13;;;;;;;37.40;21.90;;;;;;;5.74;83.06;100468.41;103475;1312;111281;-63
2021/11/18 05:29:45;;;;;;;37.90;23.50;;;;;;;5.74;83.29;100471.85;103544;1311;109379;-63
2021/11/18 05:32:17;;;;;;;35.90;22.80;;;;;;;5.73;82.88;100475.83;103340;1312;138894;-63
2021/11/18 05:35:02;;;;;;;38.40;23.40;;;;;;;5.71;83.33;100480.50;103511;1312;96627;-63
2021/11/18 05:37:35;;;;;;;37.70;22.30;;;;;;;5.71;83.25;100487.91;103466;1315;138527;-63
2021/11/18 05:40:09;;;;;;;37.40;23.10;;;;;;;5.70;83.13;100486.37;103502;1309;109537;-63
2021/11/18 05:42:43;;;;;;;35.00;21.90;;;;;;;5.72;83.23;100488.77;103545;1312;138813;-64
2021/11/18 05:45:18;;;;;;;36.80;22.10;;;;;;;5.74;83.45;100496.52;103528;1311;108915;-64
2021/11/18 05:48:02;;;;;;;37.30;24.40;;;;;;;5.76;83.38;100490.48;103418;1311;96566;-64
2021/11/18 05:50:36;;;;;;;36.70;23.30;;;;;;;5.78;83.35;100491.67;103441;1310;137899;-63
2021/11/18 05:53:08;;;;;;;38.40;23.40;;;;;;;5.79;83.43;100491.48;104518;1311;110224;-64
2021/11/18 05:55:40;;;;;;;37.10;23.00;;;;;;;5.76;83.18;100491.69;103505;1312;138036;-64
2021/11/18 05:58:13;;;;;;;34.90;22.00;;;;;;;5.71;83.24;100496.36;103607;1315;108296;-63
2021/11/18 06:00:46;;;;;;;32.70;21.20;;;;;;;5.68;83.51;100494.49;104583;1311;139067;-64
2021/11/18 06:03:19;;;;;;;34.50;21.00;;;;;;;5.68;83.65;100495.71;104570;1312;94806;-65
2021/11/18 06:05:51;;;;;;;34.80;20.80;;;;;;;5.71;83.47;100493.60;104346;1310;111211;-64
2021/11/18 06:08:23;;;;;;;36.30;22.20;;;;;;;5.73;83.42;100493.94;104763;1310;138871;-65
2021/11/18 06:10:56;;;;;;;38.10;22.10;;;;;;;5.75;83.50;100493.58;104503;1311;107885;-64
2021/11/18 06:13:30;;;;;;;36.10;22.80;;;;;;;5.78;83.69;100495.12;103803;1312;138447;-64
2021/11/18 06:16:03;;;;;;;39.80;24.50;;;;;;;5.77;83.58;100496.52;103556;1315;96477;-64
2021/11/18 06:18:37;;;;;;;36.40;21.80;;;;;;;5.76;83.64;100496.86;104062;1310;137859;-64
2021/11/18 06:21:12;;;;;;;37.30;23.20;;;;;;;5.74;83.65;100501.88;104734;1313;107989;-64
2021/11/18 06:23:45;;;;;;;37.40;22.00;;;;;;;5.74;83.55;100504.64;103810;1318;109211;-64
2021/11/18 06:26:18;;;;;;;40.10;22.00;;;;;;;5.75;83.50;100504.47;104792;1310;139530;-64
2021/11/18 06:28:50;;;;;;;34.50;21.80;;;;;;;5.76;83.64;100511.02;104220;1312;95223;-63
2021/11/18 06:31:22;;;;;;;34.30;21.80;;;;;;;5.78;83.51;100509.79;103302;1312;138491;-66
2021/11/18 06:33:57;;;;;;;35.90;23.00;;;;;;;5.82;83.69;100510.09;103340;1313;108796;-64
2021/11/18 06:36:30;;;;;;;35.40;22.40;;;;;;;5.82;83.53;100508.88;103310;1313;139425;-64
2021/11/18 06:39:03;;;;;;;35.60;22.60;;;;;;;5.81;83.56;100509.23;104739;1313;94851;-65
2021/11/18 06:41:37;;;;;;;40.10;23.90;;;;;;;5.80;83.48;100507.52;103590;1313;97944;-64
2021/11/18 06:44:11;;;;;;;41.80;23.40;;;;;;;5.78;83.51;100519.63;103264;1313;137976;-64
2021/11/18 06:46:44;;;;;;;34.20;21.80;;;;;;;5.75;84.03;100521.89;103438;1311;108973;-64
2021/11/18 06:49:16;;;;;;;35.80;21.90;;;;;;;5.73;83.89;100525.34;104443;1313;139158;-64
2021/11/18 06:51:49;;;;;;;35.20;21.30;;;;;;;5.74;83.94;100526.71;103789;1314;96522;-64
2021/11/18 06:54:23;;;;;;;33.10;20.30;;;;;;;5.76;83.97;100532.06;103405;1313;96546;-64
2021/11/18 06:56:55;;;;;;;33.20;20.70;;;;;;;5.75;83.93;100537.08;103187;1312;138406;-64
2021/11/18 06:59:29;;;;;;;32.80;20.40;;;;;;;5.78;83.99;100535.16;103380;1313;109420;-63
2021/11/18 07:02:02;;;;;;;36.20;22.30;;;;;;;5.78;84.07;100538.08;104487;1308;137814;-64
2021/11/18 07:04:36;;;;;;;37.40;23.20;;;;;;;5.79;83.94;100535.15;104692;1311;94867;-64
2021/11/18 07:07:09;;;;;;;35.10;23.10;;;;;;;5.78;84.04;100540.84;104601;1313;139008;-64
2021/11/18 07:09:41;;;;;;;32.40;21.30;;;;;;;5.77;84.05;100543.10;104292;1310;111118;-64
2021/11/18 07:12:22;;;;;;;36.30;21.80;;;;;;;5.75;84.00;100537.77;103250;1313;109048;-63
2021/11/18 07:14:56;;;;;;;36.30;21.20;;;;;;;5.73;83.92;100531.55;104220;1313;138491;-64
2021/11/18 07:17:28;;;;;;;31.60;20.80;;;;;;;5.73;83.98;100528.96;103608;1313;96564;-63
2021/11/18 07:20:03;;;;;;;33.10;20.70;;;;;;;5.78;84.24;100526.00;103269;1312;140409;-64
2021/11/18 07:22:37;;;;;;;31.70;19.90;;;;;;;5.81;84.20;100523.57;103586;1311;111302;-63
2021/11/18 07:25:16;;;;;;;29.80;19.70;;;;;;;5.83;83.83;100526.30;103261;1317;139801;-63
2021/11/18 07:27:50;;;;;;;31.60;21.80;;;;;;;5.84;84.04;100535.96;104406;1313;107892;-63
2021/11/18 07:30:25;;;;;;;32.40;20.90;;;;;;;5.91;84.27;100534.36;103430;1313;96483;-65
2021/11/18 07:32:58;;;;;;;33.60;21.80;;;;;;;5.96;84.01;100532.61;103196;1313;137727;-63
2021/11/18 07:35:32;;;;;;;32.10;19.80;;;;;;;5.96;83.90;100538.48;104369;1315;111124;-64
2021/11/18 07:38:05;;;;;;;32.80;20.20;;;;;;;5.96;83.80;100532.45;104597;1313;139187;-64
2021/11/18 07:40:41;;;;;;;30.10;19.30;;;;;;;5.98;83.72;100538.30;104659;1312;108833;-64
2021/11/18 07:43:23;;;;;;;31.50;19.00;;;;;;;5.98;83.52;100539.51;104512;1314;139017;-64
2021/11/18 07:46:00;;;;;;;32.00;19.40;;;;;;;5.99;83.52;100540.35;104706;1312;94804;-63
2021/11/18 07:48:52;;;;;;;26.70;18.40;;;;;;;6.04;83.72;100539.95;104641;1311;138402;-63
2021/11/18 07:51:28;;;;;;;33.00;20.70;;;;;;;6.06;83.58;100543.21;104257;1312;108996;-63
2021/11/18 07:54:01;;;;;;;33.40;20.10;;;;;;;6.07;83.45;100540.95;103261;1316;109679;-62
2021/11/18 07:56:35;;;;;;;36.90;20.20;;;;;;;6.11;83.46;100540.08;104613;1311;138233;-63
2021/11/18 07:59:08;;;;;;;31.20;20.30;;;;;;;6.10;83.52;100544.21;103499;1313;96521;-62
2021/11/18 08:01:40;;;;;;;31.10;19.90;;;;;;;6.10;83.59;100547.48;103304;1312;138492;-63
2021/11/18 08:04:13;;;;;;;29.20;19.80;;;;;;;6.12;83.65;100546.64;104653;1315;108518;-63
2021/11/18 08:06:49;;;;;;;29.60;18.50;;;;;;;6.16;83.54;100542.96;104651;1315;138773;-64
2021/11/18 08:09:23;;;;;;;33.10;17.90;;;;;;;6.21;83.36;100552.74;104159;1309;348538;-64
2021/11/18 08:11:57;;;;;;;27.50;19.10;;;;;;;6.22;83.09;100556.02;103361;1311;96488;-62
2021/11/18 08:14:31;;;;;;;30.50;19.60;;;;;;;6.25;83.11;100555.46;104207;1312;137788;-63
2021/11/18 08:17:04;;;;;;;30.90;19.90;;;;;;;6.28;83.39;100552.85;103645;1311;108896;-63
2021/11/18 08:19:36;;;;;;;28.50;18.50;;;;;;;6.27;82.85;100559.77;104460;1312;139275;-63
2021/11/18 08:22:16;;;;;;;26.10;16.10;;;;;;;6.24;82.80;100560.31;103677;1312;96566;-63
2021/11/18 08:24:48;;;;;;;27.20;16.30;;;;;;;6.24;82.92;100559.27;103791;1313;138848;-63
2021/11/18 08:27:21;;;;;;;28.40;15.70;;;;;;;6.27;83.10;100565.80;103778;1313;111224;-65
2021/11/18 08:29:54;;;;;;;26.90;17.40;;;;;;;6.28;82.70;100569.79;103274;1313;107824;-63
2021/11/18 08:32:27;;;;;;;29.00;17.40;;;;;;;6.28;82.68;100575.64;103108;1313;138257;-65
2021/11/18 08:35:26;;;;;;;26.00;16.90;;;;;;;6.25;82.66;100577.05;103365;1312;96608;-65
2021/11/18 08:37:59;;;;;;;26.50;17.70;;;;;;;6.24;82.70;100578.61;103313;1312;138013;-63
2021/11/18 08:40:32;;;;;;;29.80;17.00;;;;;;;6.26;82.90;100585.16;103849;1312;111541;-63
2021/11/18 08:43:05;;;;;;;26.40;16.00;;;;;;;6.26;82.79;100582.73;103259;1312;138801;-65
2021/11/18 08:45:38;;;;;;;27.00;16.30;;;;;;;6.26;82.51;100592.23;104731;1311;109532;-64
2021/11/18 08:48:13;;;;;;;24.40;15.10;;;;;;;6.28;82.75;100586.88;104586;1311;95234;-65
2021/11/18 08:50:49;;;;;;;30.30;16.40;;;;;;;6.32;82.63;100590.29;103420;1318;138161;-66
2021/11/18 08:53:23;;;;;;;;;;;;;;;6.38;82.46;100593.16;103347;1311;110780;-65
2021/11/18 08:55:57;;;;;;;26.00;16.00;;;;;;;6.47;82.59;100589.63;103647;1317;125028;-66
2021/11/18 08:58:35;;;;;;;32.30;16.90;;;;;;;6.55;82.40;100590.94;103620;1312;108877;-64
2021/11/18 09:01:19;;;;;;;29.90;17.00;;;;;;;6.64;82.21;100593.08;104262;1312;138016;-64
2021/11/18 09:03:57;;;;;;;22.10;15.70;;;;;;;6.79;82.11;100591.70;103176;1312;96536;-65
2021/11/18 09:06:31;;;;;;;23.80;13.60;;;;;;;6.95;81.68;100586.52;103265;1314;111129;-65
2021/11/18 09:09:06;;;;;;;23.30;14.10;;;;;;;7.12;81.28;100584.73;104416;1312;138720;-65
2021/11/18 09:11:40;;;;;;;23.20;13.70;;;;;;;7.32;80.79;100585.70;104517;1308;108743;-65
2021/11/18 09:14:12;;;;;;;21.20;14.30;;;;;;;7.40;80.15;100590.09;103445;1312;138562;-64
2021/11/18 09:16:46;;;;;;;22.80;14.80;;;;;;;7.43;79.89;100586.76;103263;1312;98193;-64
2021/11/18 09:19:27;;;;;;;26.90;14.50;;;;;;;7.42;79.58;100580.71;104413;1312;138398;-65
2021/11/18 09:22:02;;;;;;;27.00;15.40;;;;;;;7.34;79.34;100585.33;103347;1311;109017;-65
2021/11/18 09:24:37;;;;;;;23.90;14.10;;;;;;;7.23;79.49;100588.23;103275;1312;109064;-65
2021/11/18 09:27:12;;;;;;;24.80;13.00;;;;;;;7.12;79.55;100588.19;103909;1312;139604;-65
2021/11/18 09:29:46;;;;;;;20.50;12.90;;;;;;;7.06;79.70;100593.64;104706;1311;94904;-65
2021/11/18 09:32:40;;;;;;;22.50;12.20;;;;;;;7.04;79.69;100595.76;103363;1312;139889;-64
2021/11/18 09:35:25;;;;;;;19.90;13.20;;;;;;;6.97;79.25;100584.74;103456;1311;108994;-64
2021/11/18 09:37:58;;;;;;;24.10;13.60;;;;;;;6.95;79.53;100590.83;103071;1313;139124;-64
2021/11/18 09:40:34;;;;;;;22.20;15.10;;;;;;;6.93;79.39;100587.05;103342;1311;96500;-64
2021/11/18 09:43:55;;;;;;;20.50;14.90;;;;;;;6.91;79.33;100583.63;103179;1313;139300;-65
2021/11/18 09:46:57;;;;;;;25.40;14.40;;;;;;;6.87;79.35;100577.96;103447;1311;111367;-65
2021/11/18 09:49:54;;;;;;;28.40;14.50;;;;;;;6.78;79.26;100579.10;103325;1316;138130;-64
2021/11/18 09:52:38;;;;;;;22.60;13.50;;;;;;;6.70;79.33;100579.04;103480;1311;108891;-65
2021/11/18 09:55:15;;;;;;;22.30;13.30;;;;;;;6.65;79.68;100582.20;104206;1312;139987;-65
2021/11/18 09:57:51;;;;;;;;;;;;;;;6.66;79.59;100582.02;103387;1312;96540;-67
2021/11/18 10:00:42;;;;;;;23.90;13.20;;;;;;;6.67;79.64;100571.98;103447;1311;111114;-64
2021/11/18 10:03:24;;;;;;;22.50;13.10;;;;;;;6.70;79.69;100572.47;103300;1312;138371;-64
2021/11/18 10:06:10;;;;;;;22.10;13.20;;;;;;;6.68;79.76;100574.05;104728;1309;108245;-64
2021/11/18 10:08:52;;;;;;;24.70;14.20;;;;;;;6.69;80.01;100576.11;103935;1315;138319;-64
2021/11/18 10:11:35;;;;;;;26.50;15.80;;;;;;;6.66;79.70;100575.27;103514;1312;96631;-65
2021/11/18 10:14:35;;;;;;;26.90;14.10;;;;;;;6.65;79.65;100580.13;103334;1315;137754;-64
2021/11/18 10:17:26;;;;;;;19.50;12.60;;;;;;;6.64;79.76;100573.20;104703;1309;108839;-65
2021/11/18 10:20:11;;;;;;;25.20;13.10;;;;;;;6.63;79.86;100572.69;103542;1313;138944;-65
2021/11/18 10:22:47;;;;;;;22.30;12.00;;;;;;;6.66;79.98;100572.51;103333;1311;96605;-64
2021/11/18 10:25:23;;;;;;;21.50;12.80;;;;;;;6.70;79.65;100576.09;103321;1316;138248;-64
2021/11/18 10:28:00;;;;;;;24.20;13.40;;;;;;;6.74;79.32;100573.96;103485;1315;110770;-64
2021/11/18 10:30:45;;;;;;;21.30;12.40;;;;;;;6.76;79.19;100587.77;103398;1315;109069;-64
2021/11/18 10:33:19;;;;;;;21.80;13.70;;;;;;;6.79;79.33;100584.96;104585;1312;138285;-67
2021/11/18 10:36:08;;;;;;;18.20;12.70;;;;;;;6.81;79.33;100590.30;104665;1308;96186;-65
2021/11/18 10:38:50;;;;;;;24.30;12.90;;;;;;;6.80;79.12;100585.64;104330;1312;138193;-65
2021/11/18 10:41:25;;;;;;;21.90;11.90;;;;;;;6.82;79.23;100580.44;103718;1316;112703;-65
2021/11/18 10:44:20;;;;;;;21.30;11.40;;;;;;;6.84;78.91;100582.33;103948;1312;138629;-64
2021/11/18 10:47:01;;;;;;;21.70;11.00;;;;;;;6.87;78.84;100575.38;103378;1311;107846;-65
2021/11/18 10:49:42;;;;;;;24.40;11.30;;;;;;;6.88;78.51;100569.14;103272;1311;138293;-63
2021/11/18 10:52:28;;;;;;;21.60;11.40;;;;;;;6.90;78.52;100571.02;104757;1311;94643;-65
2021/11/18 10:55:13;;;;;;;21.70;12.50;;;;;;;6.92;78.65;100561.83;103623;1314;138562;-65
2021/11/18 10:58:03;;;;;;;26.50;11.80;;;;;;;6.96;78.54;100564.35;103313;1312;108607;-64
2021/11/18 11:00:45;;;;;;;24.30;10.00;;;;;;;7.03;78.21;100561.02;103318;1313;109226;-64
2021/11/18 11:03:26;;;;;;;20.40;10.10;;;;;;;7.13;78.10;100565.02;103124;1312;138552;-64
2021/11/18 11:06:20;;;;;;;20.10;9.70;;;;;;;7.24;77.84;100571.27;104526;1316;94626;-64
2021/11/18 11:08:55;;;;;;;19.70;10.00;;;;;;;7.32;77.12;100573.41;103484;1314;136964;-64
2021/11/18 11:11:49;;;;;;;16.70;9.20;;;;;;;7.34;77.18;100575.80;103351;1311;108421;-64
2021/11/18 11:14:44;;;;;;;19.40;10.30;;;;;;;7.35;77.06;100573.55;103178;1315;137913;-63
2021/11/18 11:17:33;;;;;;;22.90;10.70;;;;;;;7.32;76.99;100562.17;104661;1311;95351;-64
2021/11/18 11:20:10;;;;;;;22.50;10.80;;;;;;;7.30;76.95;100568.08;103572;1312;137940;-64
2021/11/18 11:22:51;;;;;;;20.80;10.50;;;;;;;7.34;76.95;100570.44;103423;1311;111202;-63
2021/11/18 11:25:40;;;;;;;18.20;9.40;;;;;;;7.42;76.70;100570.16;104477;1312;138131;-65
2021/11/18 11:28:33;;;;;;;17.90;8.90;;;;;;;7.52;76.11;100568.80;103246;1311;106701;-64
2021/11/18 11:31:20;;;;;;;16.30;8.00;;;;;;;7.60;75.88;100576.65;103968;1318;140854;-64
2021/11/18 11:33:57;;;;;;;13.40;7.40;;;;;;;7.63;75.57;100580.41;104654;1317;95343;-65
2021/11/18 11:36:37;;;;;;;14.90;7.80;;;;;;;7.64;74.78;100570.19;104775;1312;111283;-64
2021/11/18 11:39:19;;;;;;;14.50;7.20;;;;;;;7.63;74.81;100572.11;103456;1314;137721;-64
2021/11/18 11:42:20;;;;;;;15.90;7.20;;;;;;;7.62;74.50;100566.58;103292;1317;109066;-64
2021/11/18 11:45:05;;;;;;;21.80;8.50;;;;;;;7.57;74.22;100572.20;103614;1316;138097;-64
2021/11/18 11:48:04;;;;;;;15.10;7.70;;;;;;;7.52;74.11;100566.89;103243;1312;96496;-63